sensor_id;sensor_type;location;lat;lon;timestamp;temperature;humidity
42085;DHT22;27746;52.228;20.890;2022-07-23T00:00:15;24.20;88.20
42085;DHT22;27746;52.228;20.890;2022-07-23T00:02:43;24.20;87.50
42085;DHT22;27746;52.228;20.890;2022-07-23T00:05:11;24.20;87.60
42085;DHT22;27746;52.228;20.890;2022-07-23T00:07:38;24.10;87.20
42085;DHT22;27746;52.228;20.890;2022-07-23T00:10:07;24.10;87.20
42085;DHT22;27746;52.228;20.890;2022-07-23T00:12:34;24.10;87.80
42085;DHT22;27746;52.228;20.890;2022-07-23T00:15:01;24.20;88.40
42085;DHT22;27746;52.228;20.890;2022-07-23T00:17:28;24.10;88.80
42085;DHT22;27746;52.228;20.890;2022-07-23T00:19:54;24.20;87.10
42085;DHT22;27746;52.228;20.890;2022-07-23T00:22:21;24.20;88.20
42085;DHT22;27746;52.228;20.890;2022-07-23T00:24:48;24.10;89.10
42085;DHT22;27746;52.228;20.890;2022-07-23T00:27:16;24.10;89.40
42085;DHT22;27746;52.228;20.890;2022-07-23T00:29:43;24.10;89.80
42085;DHT22;27746;52.228;20.890;2022-07-23T00:32:09;24.00;90.00
42085;DHT22;27746;52.228;20.890;2022-07-23T00:34:36;24.10;90.10
42085;DHT22;27746;52.228;20.890;2022-07-23T00:37:03;24.00;90.20
42085;DHT22;27746;52.228;20.890;2022-07-23T00:39:30;24.00;90.30
42085;DHT22;27746;52.228;20.890;2022-07-23T00:41:57;24.00;90.40
42085;DHT22;27746;52.228;20.890;2022-07-23T00:44:26;24.00;90.40
42085;DHT22;27746;52.228;20.890;2022-07-23T00:46:55;23.90;90.50
42085;DHT22;27746;52.228;20.890;2022-07-23T00:49:23;23.90;90.60
42085;DHT22;27746;52.228;20.890;2022-07-23T00:51:50;23.80;90.80
42085;DHT22;27746;52.228;20.890;2022-07-23T00:54:18;23.70;90.80
42085;DHT22;27746;52.228;20.890;2022-07-23T00:56:46;23.70;90.90
42085;DHT22;27746;52.228;20.890;2022-07-23T00:59:13;23.50;91.00
42085;DHT22;27746;52.228;20.890;2022-07-23T01:01:41;23.50;91.10
42085;DHT22;27746;52.228;20.890;2022-07-23T01:04:09;23.40;91.30
42085;DHT22;27746;52.228;20.890;2022-07-23T01:06:37;23.30;91.60
42085;DHT22;27746;52.228;20.890;2022-07-23T01:09:05;23.20;91.40
42085;DHT22;27746;52.228;20.890;2022-07-23T01:11:33;23.20;91.40
42085;DHT22;27746;52.228;20.890;2022-07-23T01:14:08;23.10;91.50
42085;DHT22;27746;52.228;20.890;2022-07-23T01:16:35;23.10;91.80
42085;DHT22;27746;52.228;20.890;2022-07-23T01:19:03;23.00;91.90
42085;DHT22;27746;52.228;20.890;2022-07-23T01:21:33;23.00;92.00
42085;DHT22;27746;52.228;20.890;2022-07-23T01:24:03;23.00;92.20
42085;DHT22;27746;52.228;20.890;2022-07-23T01:26:30;22.90;92.30
42085;DHT22;27746;52.228;20.890;2022-07-23T01:28:57;22.90;92.60
42085;DHT22;27746;52.228;20.890;2022-07-23T01:31:23;22.90;92.50
42085;DHT22;27746;52.228;20.890;2022-07-23T01:33:50;22.80;92.60
42085;DHT22;27746;52.228;20.890;2022-07-23T01:36:17;22.70;92.70
42085;DHT22;27746;52.228;20.890;2022-07-23T01:38:44;22.70;92.80
42085;DHT22;27746;52.228;20.890;2022-07-23T01:41:12;22.60;92.90
42085;DHT22;27746;52.228;20.890;2022-07-23T01:43:41;22.60;93.00
42085;DHT22;27746;52.228;20.890;2022-07-23T01:46:08;22.50;93.00
42085;DHT22;27746;52.228;20.890;2022-07-23T01:48:35;22.50;93.10
42085;DHT22;27746;52.228;20.890;2022-07-23T01:51:02;22.50;93.10
42085;DHT22;27746;52.228;20.890;2022-07-23T01:53:29;22.40;93.10
42085;DHT22;27746;52.228;20.890;2022-07-23T01:55:59;22.40;93.30
42085;DHT22;27746;52.228;20.890;2022-07-23T01:58:27;22.30;93.40
42085;DHT22;27746;52.228;20.890;2022-07-23T02:00:54;22.20;93.50
42085;DHT22;27746;52.228;20.890;2022-07-23T02:03:21;22.20;93.50
42085;DHT22;27746;52.228;20.890;2022-07-23T02:05:49;22.20;93.50
42085;DHT22;27746;52.228;20.890;2022-07-23T02:08:16;22.20;93.60
42085;DHT22;27746;52.228;20.890;2022-07-23T02:10:43;22.20;93.70
42085;DHT22;27746;52.228;20.890;2022-07-23T02:13:09;22.20;93.80
42085;DHT22;27746;52.228;20.890;2022-07-23T02:15:38;22.20;93.90
42085;DHT22;27746;52.228;20.890;2022-07-23T02:18:04;22.10;93.90
42085;DHT22;27746;52.228;20.890;2022-07-23T02:20:32;22.10;94.00
42085;DHT22;27746;52.228;20.890;2022-07-23T02:22:59;22.10;94.00
42085;DHT22;27746;52.228;20.890;2022-07-23T02:25:26;22.10;94.10
42085;DHT22;27746;52.228;20.890;2022-07-23T02:27:52;22.00;94.20
42085;DHT22;27746;52.228;20.890;2022-07-23T02:30:19;22.00;94.30
42085;DHT22;27746;52.228;20.890;2022-07-23T02:32:47;22.00;94.40
42085;DHT22;27746;52.228;20.890;2022-07-23T02:35:14;22.00;94.50
42085;DHT22;27746;52.228;20.890;2022-07-23T02:37:41;21.90;94.50
42085;DHT22;27746;52.228;20.890;2022-07-23T02:40:08;21.80;94.60
42085;DHT22;27746;52.228;20.890;2022-07-23T02:42:35;21.80;94.70
42085;DHT22;27746;52.228;20.890;2022-07-23T02:45:02;21.80;94.80
42085;DHT22;27746;52.228;20.890;2022-07-23T02:47:29;21.80;94.90
42085;DHT22;27746;52.228;20.890;2022-07-23T02:49:58;21.80;94.90
42085;DHT22;27746;52.228;20.890;2022-07-23T02:52:25;21.80;95.00
42085;DHT22;27746;52.228;20.890;2022-07-23T02:54:52;21.80;95.10
42085;DHT22;27746;52.228;20.890;2022-07-23T02:57:18;21.70;95.40
42085;DHT22;27746;52.228;20.890;2022-07-23T02:59:45;21.80;95.20
42085;DHT22;27746;52.228;20.890;2022-07-23T03:02:12;21.80;95.30
42085;DHT22;27746;52.228;20.890;2022-07-23T03:04:39;21.80;95.20
42085;DHT22;27746;52.228;20.890;2022-07-23T03:07:09;21.70;95.30
42085;DHT22;27746;52.228;20.890;2022-07-23T03:09:35;21.70;95.40
42085;DHT22;27746;52.228;20.890;2022-07-23T03:12:02;21.70;95.40
42085;DHT22;27746;52.228;20.890;2022-07-23T03:14:29;21.70;95.50
42085;DHT22;27746;52.228;20.890;2022-07-23T03:16:56;21.70;95.90
42085;DHT22;27746;52.228;20.890;2022-07-23T03:19:25;21.70;95.70
42085;DHT22;27746;52.228;20.890;2022-07-23T03:21:52;21.70;95.70
42085;DHT22;27746;52.228;20.890;2022-07-23T03:24:20;21.70;95.70
42085;DHT22;27746;52.228;20.890;2022-07-23T03:26:49;21.70;95.80
42085;DHT22;27746;52.228;20.890;2022-07-23T03:29:16;21.70;96.00
42085;DHT22;27746;52.228;20.890;2022-07-23T03:31:43;21.60;96.00
42085;DHT22;27746;52.228;20.890;2022-07-23T03:34:10;21.70;96.10
42085;DHT22;27746;52.228;20.890;2022-07-23T03:36:36;21.70;96.20
42085;DHT22;27746;52.228;20.890;2022-07-23T03:39:03;21.60;96.30
42085;DHT22;27746;52.228;20.890;2022-07-23T03:41:31;21.60;96.40
42085;DHT22;27746;52.228;20.890;2022-07-23T03:43:58;21.70;96.50
42085;DHT22;27746;52.228;20.890;2022-07-23T03:46:25;21.70;96.60
42085;DHT22;27746;52.228;20.890;2022-07-23T03:48:51;21.70;96.70
42085;DHT22;27746;52.228;20.890;2022-07-23T03:51:18;21.60;96.70
42085;DHT22;27746;52.228;20.890;2022-07-23T03:53:45;21.70;96.80
42085;DHT22;27746;52.228;20.890;2022-07-23T03:56:11;21.70;96.90
42085;DHT22;27746;52.228;20.890;2022-07-23T03:58:39;21.80;97.00
42085;DHT22;27746;52.228;20.890;2022-07-23T04:01:07;21.70;97.00
42085;DHT22;27746;52.228;20.890;2022-07-23T04:03:34;21.80;97.20
42085;DHT22;27746;52.228;20.890;2022-07-23T04:06:01;21.80;97.30
42085;DHT22;27746;52.228;20.890;2022-07-23T04:08:28;21.80;97.30
42085;DHT22;27746;52.228;20.890;2022-07-23T04:10:55;21.80;97.30
42085;DHT22;27746;52.228;20.890;2022-07-23T04:13:21;21.80;97.20
42085;DHT22;27746;52.228;20.890;2022-07-23T04:15:49;21.90;97.30
42085;DHT22;27746;52.228;20.890;2022-07-23T04:18:17;21.90;97.30
42085;DHT22;27746;52.228;20.890;2022-07-23T04:20:43;21.90;97.50
42085;DHT22;27746;52.228;20.890;2022-07-23T04:23:10;21.90;97.50
42085;DHT22;27746;52.228;20.890;2022-07-23T04:25:38;21.90;97.50
42085;DHT22;27746;52.228;20.890;2022-07-23T04:28:05;21.90;97.60
42085;DHT22;27746;52.228;20.890;2022-07-23T04:30:31;22.00;97.60
42085;DHT22;27746;52.228;20.890;2022-07-23T04:33:00;22.00;97.60
42085;DHT22;27746;52.228;20.890;2022-07-23T04:35:31;22.10;97.70
42085;DHT22;27746;52.228;20.890;2022-07-23T04:37:58;22.10;97.70
42085;DHT22;27746;52.228;20.890;2022-07-23T04:40:25;22.10;97.60
42085;DHT22;27746;52.228;20.890;2022-07-23T04:42:51;22.20;97.60
42085;DHT22;27746;52.228;20.890;2022-07-23T04:45:18;22.20;97.50
42085;DHT22;27746;52.228;20.890;2022-07-23T04:47:45;22.20;97.50
42085;DHT22;27746;52.228;20.890;2022-07-23T04:50:13;22.30;97.40
42085;DHT22;27746;52.228;20.890;2022-07-23T04:52:42;22.30;97.40
42085;DHT22;27746;52.228;20.890;2022-07-23T04:55:09;22.40;97.40
42085;DHT22;27746;52.228;20.890;2022-07-23T04:57:36;22.50;97.20
42085;DHT22;27746;52.228;20.890;2022-07-23T05:00:04;22.50;97.10
42085;DHT22;27746;52.228;20.890;2022-07-23T05:02:31;22.60;97.10
42085;DHT22;27746;52.228;20.890;2022-07-23T05:04:57;22.70;97.20
42085;DHT22;27746;52.228;20.890;2022-07-23T05:07:27;22.70;97.00
42085;DHT22;27746;52.228;20.890;2022-07-23T05:09:54;22.80;97.10
42085;DHT22;27746;52.228;20.890;2022-07-23T05:12:21;22.90;97.20
42085;DHT22;27746;52.228;20.890;2022-07-23T05:14:48;22.90;97.10
42085;DHT22;27746;52.228;20.890;2022-07-23T05:17:15;23.00;97.00
42085;DHT22;27746;52.228;20.890;2022-07-23T05:19:42;23.10;96.90
42085;DHT22;27746;52.228;20.890;2022-07-23T05:22:08;23.10;96.90
42085;DHT22;27746;52.228;20.890;2022-07-23T05:24:37;23.10;96.80
42085;DHT22;27746;52.228;20.890;2022-07-23T05:27:03;23.20;96.80
42085;DHT22;27746;52.228;20.890;2022-07-23T05:29:30;23.30;96.80
42085;DHT22;27746;52.228;20.890;2022-07-23T05:31:57;23.40;96.70
42085;DHT22;27746;52.228;20.890;2022-07-23T05:34:24;23.50;96.70
42085;DHT22;27746;52.228;20.890;2022-07-23T05:36:50;23.50;96.70
42085;DHT22;27746;52.228;20.890;2022-07-23T05:39:17;23.60;96.70
42085;DHT22;27746;52.228;20.890;2022-07-23T05:41:46;23.70;96.70
42085;DHT22;27746;52.228;20.890;2022-07-23T05:44:12;23.80;96.50
42085;DHT22;27746;52.228;20.890;2022-07-23T05:46:39;23.90;96.70
42085;DHT22;27746;52.228;20.890;2022-07-23T05:49:07;24.00;96.60
42085;DHT22;27746;52.228;20.890;2022-07-23T05:51:33;24.00;96.50
42085;DHT22;27746;52.228;20.890;2022-07-23T05:54:00;24.10;96.40
42085;DHT22;27746;52.228;20.890;2022-07-23T05:56:27;24.20;96.20
42085;DHT22;27746;52.228;20.890;2022-07-23T05:58:55;24.20;96.00
42085;DHT22;27746;52.228;20.890;2022-07-23T06:01:22;24.40;96.10
42085;DHT22;27746;52.228;20.890;2022-07-23T06:03:49;24.40;96.10
42085;DHT22;27746;52.228;20.890;2022-07-23T06:06:15;24.50;95.80
42085;DHT22;27746;52.228;20.890;2022-07-23T06:08:42;24.50;95.40
42085;DHT22;27746;52.228;20.890;2022-07-23T06:11:09;24.60;95.40
42085;DHT22;27746;52.228;20.890;2022-07-23T06:13:36;24.70;95.40
42085;DHT22;27746;52.228;20.890;2022-07-23T06:16:04;24.80;95.00
42085;DHT22;27746;52.228;20.890;2022-07-23T06:18:31;24.90;95.10
42085;DHT22;27746;52.228;20.890;2022-07-23T06:20:58;24.90;95.00
42085;DHT22;27746;52.228;20.890;2022-07-23T06:23:24;25.00;94.70
42085;DHT22;27746;52.228;20.890;2022-07-23T06:25:51;25.10;95.00
42085;DHT22;27746;52.228;20.890;2022-07-23T06:28:18;25.20;95.40
42085;DHT22;27746;52.228;20.890;2022-07-23T06:30:45;25.30;95.20
42085;DHT22;27746;52.228;20.890;2022-07-23T06:33:13;25.40;95.10
42085;DHT22;27746;52.228;20.890;2022-07-23T06:35:40;25.50;95.10
42085;DHT22;27746;52.228;20.890;2022-07-23T06:38:07;25.60;94.80
42085;DHT22;27746;52.228;20.890;2022-07-23T06:40:34;25.70;94.70
42085;DHT22;27746;52.228;20.890;2022-07-23T06:43:01;25.80;94.30
42085;DHT22;27746;52.228;20.890;2022-07-23T06:45:27;25.90;94.20
42085;DHT22;27746;52.228;20.890;2022-07-23T06:47:54;25.90;94.30
42085;DHT22;27746;52.228;20.890;2022-07-23T06:50:22;26.00;94.70
42085;DHT22;27746;52.228;20.890;2022-07-23T06:52:49;26.10;94.40
42085;DHT22;27746;52.228;20.890;2022-07-23T06:55:16;26.10;94.50
42085;DHT22;27746;52.228;20.890;2022-07-23T06:57:43;26.20;94.30
42085;DHT22;27746;52.228;20.890;2022-07-23T07:00:10;26.20;93.80
42085;DHT22;27746;52.228;20.890;2022-07-23T07:02:37;26.30;93.90
42085;DHT22;27746;52.228;20.890;2022-07-23T07:05:04;26.40;93.90
42085;DHT22;27746;52.228;20.890;2022-07-23T07:07:32;26.50;93.70
42085;DHT22;27746;52.228;20.890;2022-07-23T07:10:00;26.60;93.70
42085;DHT22;27746;52.228;20.890;2022-07-23T07:12:27;26.60;93.50
42085;DHT22;27746;52.228;20.890;2022-07-23T07:14:54;26.70;93.60
42085;DHT22;27746;52.228;20.890;2022-07-23T07:17:22;26.80;93.90
42085;DHT22;27746;52.228;20.890;2022-07-23T07:19:49;26.90;93.40
42085;DHT22;27746;52.228;20.890;2022-07-23T07:22:15;26.90;93.10
42085;DHT22;27746;52.228;20.890;2022-07-23T07:24:43;27.00;93.20
42085;DHT22;27746;52.228;20.890;2022-07-23T07:27:10;27.10;92.90
42085;DHT22;27746;52.228;20.890;2022-07-23T07:29:37;27.20;92.60
42085;DHT22;27746;52.228;20.890;2022-07-23T07:32:04;27.30;92.30
42085;DHT22;27746;52.228;20.890;2022-07-23T07:34:31;27.30;92.10
42085;DHT22;27746;52.228;20.890;2022-07-23T07:36:58;27.40;91.80
42085;DHT22;27746;52.228;20.890;2022-07-23T07:39:24;27.50;91.70
42085;DHT22;27746;52.228;20.890;2022-07-23T07:41:52;27.60;91.70
42085;DHT22;27746;52.228;20.890;2022-07-23T07:44:19;27.60;91.50
42085;DHT22;27746;52.228;20.890;2022-07-23T07:46:46;27.70;91.30
42085;DHT22;27746;52.228;20.890;2022-07-23T07:49:13;27.80;90.90
42085;DHT22;27746;52.228;20.890;2022-07-23T07:51:40;27.80;90.60
42085;DHT22;27746;52.228;20.890;2022-07-23T07:54:06;27.90;90.50
42085;DHT22;27746;52.228;20.890;2022-07-23T07:56:33;28.00;90.60
42085;DHT22;27746;52.228;20.890;2022-07-23T07:59:01;28.10;90.00
42085;DHT22;27746;52.228;20.890;2022-07-23T08:01:28;28.20;89.50
42085;DHT22;27746;52.228;20.890;2022-07-23T08:03:55;28.30;89.80
42085;DHT22;27746;52.228;20.890;2022-07-23T08:06:22;28.40;89.60
42085;DHT22;27746;52.228;20.890;2022-07-23T08:08:48;28.50;88.80
42085;DHT22;27746;52.228;20.890;2022-07-23T08:11:15;28.60;88.40
42085;DHT22;27746;52.228;20.890;2022-07-23T08:13:42;28.70;87.60
42085;DHT22;27746;52.228;20.890;2022-07-23T08:16:11;28.70;87.00
42085;DHT22;27746;52.228;20.890;2022-07-23T08:18:38;28.90;86.60
42085;DHT22;27746;52.228;20.890;2022-07-23T08:21:04;28.90;86.60
42085;DHT22;27746;52.228;20.890;2022-07-23T08:23:31;29.00;85.50
42085;DHT22;27746;52.228;20.890;2022-07-23T08:25:58;29.10;84.80
42085;DHT22;27746;52.228;20.890;2022-07-23T08:28:26;29.20;85.30
42085;DHT22;27746;52.228;20.890;2022-07-23T08:30:54;29.20;83.70
42085;DHT22;27746;52.228;20.890;2022-07-23T08:33:22;29.30;84.40
42085;DHT22;27746;52.228;20.890;2022-07-23T08:35:50;29.40;85.20
42085;DHT22;27746;52.228;20.890;2022-07-23T08:38:19;29.50;84.90
42085;DHT22;27746;52.228;20.890;2022-07-23T08:40:48;29.60;83.40
42085;DHT22;27746;52.228;20.890;2022-07-23T08:43:18;29.60;82.00
42085;DHT22;27746;52.228;20.890;2022-07-23T08:45:46;29.70;81.70
42085;DHT22;27746;52.228;20.890;2022-07-23T08:48:14;29.80;83.30
42085;DHT22;27746;52.228;20.890;2022-07-23T08:50:44;29.80;82.70
42085;DHT22;27746;52.228;20.890;2022-07-23T08:53:11;29.90;82.40
42085;DHT22;27746;52.228;20.890;2022-07-23T08:55:39;29.80;79.00
42085;DHT22;27746;52.228;20.890;2022-07-23T08:58:06;29.80;78.80
42085;DHT22;27746;52.228;20.890;2022-07-23T09:00:32;29.90;80.70
42085;DHT22;27746;52.228;20.890;2022-07-23T09:02:59;30.00;81.10
42085;DHT22;27746;52.228;20.890;2022-07-23T09:05:26;30.10;80.60
42085;DHT22;27746;52.228;20.890;2022-07-23T09:08:14;30.20;81.40
42085;DHT22;27746;52.228;20.890;2022-07-23T09:10:47;30.30;79.00
42085;DHT22;27746;52.228;20.890;2022-07-23T09:13:24;30.40;78.00
42085;DHT22;27746;52.228;20.890;2022-07-23T09:15:52;30.50;77.90
42085;DHT22;27746;52.228;20.890;2022-07-23T09:18:31;30.60;78.10
42085;DHT22;27746;52.228;20.890;2022-07-23T09:21:13;30.70;78.00
42085;DHT22;27746;52.228;20.890;2022-07-23T09:23:43;30.80;76.90
42085;DHT22;27746;52.228;20.890;2022-07-23T09:26:17;30.90;76.40
42085;DHT22;27746;52.228;20.890;2022-07-23T09:28:53;31.00;77.00
42085;DHT22;27746;52.228;20.890;2022-07-23T09:31:21;31.00;78.00
42085;DHT22;27746;52.228;20.890;2022-07-23T09:33:49;31.10;77.90
42085;DHT22;27746;52.228;20.890;2022-07-23T09:36:17;31.20;77.10
42085;DHT22;27746;52.228;20.890;2022-07-23T09:38:54;31.20;76.10
42085;DHT22;27746;52.228;20.890;2022-07-23T09:41:21;31.30;76.10
42085;DHT22;27746;52.228;20.890;2022-07-23T09:43:55;31.40;75.40
42085;DHT22;27746;52.228;20.890;2022-07-23T09:46:24;31.50;74.50
42085;DHT22;27746;52.228;20.890;2022-07-23T09:48:51;31.60;73.50
42085;DHT22;27746;52.228;20.890;2022-07-23T09:51:18;31.70;73.00
42085;DHT22;27746;52.228;20.890;2022-07-23T09:53:49;31.80;72.50
42085;DHT22;27746;52.228;20.890;2022-07-23T09:56:20;31.90;73.90
42085;DHT22;27746;52.228;20.890;2022-07-23T09:58:50;31.90;72.80
42085;DHT22;27746;52.228;20.890;2022-07-23T10:01:17;31.90;71.30
42085;DHT22;27746;52.228;20.890;2022-07-23T10:03:46;31.90;72.30
42085;DHT22;27746;52.228;20.890;2022-07-23T10:06:14;32.00;72.70
42085;DHT22;27746;52.228;20.890;2022-07-23T10:08:43;32.10;72.40
42085;DHT22;27746;52.228;20.890;2022-07-23T10:11:14;32.20;72.20
42085;DHT22;27746;52.228;20.890;2022-07-23T10:13:43;32.20;71.70
42085;DHT22;27746;52.228;20.890;2022-07-23T10:16:15;32.30;70.20
42085;DHT22;27746;52.228;20.890;2022-07-23T10:18:42;32.40;68.20
42085;DHT22;27746;52.228;20.890;2022-07-23T10:21:10;32.50;70.20
42085;DHT22;27746;52.228;20.890;2022-07-23T10:23:44;32.50;70.60
42085;DHT22;27746;52.228;20.890;2022-07-23T10:26:19;32.60;70.70
42085;DHT22;27746;52.228;20.890;2022-07-23T10:29:02;32.70;70.00
42085;DHT22;27746;52.228;20.890;2022-07-23T10:31:41;32.80;71.10
42085;DHT22;27746;52.228;20.890;2022-07-23T10:34:21;32.90;69.90
42085;DHT22;27746;52.228;20.890;2022-07-23T10:36:56;32.90;69.00
42085;DHT22;27746;52.228;20.890;2022-07-23T10:39:28;32.90;66.40
42085;DHT22;27746;52.228;20.890;2022-07-23T10:42:08;32.80;67.70
42085;DHT22;27746;52.228;20.890;2022-07-23T10:44:41;32.90;69.00
42085;DHT22;27746;52.228;20.890;2022-07-23T10:47:08;33.00;69.30
42085;DHT22;27746;52.228;20.890;2022-07-23T10:49:45;33.10;68.70
42085;DHT22;27746;52.228;20.890;2022-07-23T10:52:22;33.20;67.70
42085;DHT22;27746;52.228;20.890;2022-07-23T10:54:51;33.30;68.90
42085;DHT22;27746;52.228;20.890;2022-07-23T10:57:20;33.40;68.70
42085;DHT22;27746;52.228;20.890;2022-07-23T11:00:22;33.50;67.70
42085;DHT22;27746;52.228;20.890;2022-07-23T11:02:50;33.60;67.70
42085;DHT22;27746;52.228;20.890;2022-07-23T11:05:19;33.70;67.50
42085;DHT22;27746;52.228;20.890;2022-07-23T11:08:15;33.90;67.60
42085;DHT22;27746;52.228;20.890;2022-07-23T11:10:44;33.90;66.50
42085;DHT22;27746;52.228;20.890;2022-07-23T11:13:45;33.90;65.00
42085;DHT22;27746;52.228;20.890;2022-07-23T11:16:22;33.90;65.30
42085;DHT22;27746;52.228;20.890;2022-07-23T11:18:55;34.00;64.80
42085;DHT22;27746;52.228;20.890;2022-07-23T11:21:41;34.10;64.90
42085;DHT22;27746;52.228;20.890;2022-07-23T11:24:09;34.10;65.80
42085;DHT22;27746;52.228;20.890;2022-07-23T11:27:01;34.20;65.50
42085;DHT22;27746;52.228;20.890;2022-07-23T11:29:47;34.20;65.80
42085;DHT22;27746;52.228;20.890;2022-07-23T11:32:38;34.20;64.90
42085;DHT22;27746;52.228;20.890;2022-07-23T11:35:25;34.30;65.80
42085;DHT22;27746;52.228;20.890;2022-07-23T11:37:54;34.30;66.10
42085;DHT22;27746;52.228;20.890;2022-07-23T11:40:24;34.30;65.90
42085;DHT22;27746;52.228;20.890;2022-07-23T11:42:53;34.30;66.90
42085;DHT22;27746;52.228;20.890;2022-07-23T11:45:21;34.30;67.10
42085;DHT22;27746;52.228;20.890;2022-07-23T11:47:50;34.40;66.40
42085;DHT22;27746;52.228;20.890;2022-07-23T11:50:17;34.50;65.50
42085;DHT22;27746;52.228;20.890;2022-07-23T11:52:43;34.60;65.30
42085;DHT22;27746;52.228;20.890;2022-07-23T11:55:11;34.60;64.40
42085;DHT22;27746;52.228;20.890;2022-07-23T11:57:41;34.70;64.60
42085;DHT22;27746;52.228;20.890;2022-07-23T12:00:11;34.70;65.10
42085;DHT22;27746;52.228;20.890;2022-07-23T12:02:40;34.80;65.20
42085;DHT22;27746;52.228;20.890;2022-07-23T12:05:11;34.80;65.30
42085;DHT22;27746;52.228;20.890;2022-07-23T12:07:40;34.80;64.20
42085;DHT22;27746;52.228;20.890;2022-07-23T12:10:11;34.90;64.10
42085;DHT22;27746;52.228;20.890;2022-07-23T12:12:39;35.10;63.50
42085;DHT22;27746;52.228;20.890;2022-07-23T12:15:08;34.90;61.80
42085;DHT22;27746;52.228;20.890;2022-07-23T12:17:37;35.00;62.50
42085;DHT22;27746;52.228;20.890;2022-07-23T12:20:08;35.10;61.70
42085;DHT22;27746;52.228;20.890;2022-07-23T12:22:37;35.10;62.30
42085;DHT22;27746;52.228;20.890;2022-07-23T12:25:09;35.10;62.30
42085;DHT22;27746;52.228;20.890;2022-07-23T12:27:36;35.10;63.20
42085;DHT22;27746;52.228;20.890;2022-07-23T12:30:19;35.10;63.00
42085;DHT22;27746;52.228;20.890;2022-07-23T12:32:48;35.10;62.90
42085;DHT22;27746;52.228;20.890;2022-07-23T12:35:17;35.10;62.60
42085;DHT22;27746;52.228;20.890;2022-07-23T12:37:47;35.10;63.40
42085;DHT22;27746;52.228;20.890;2022-07-23T12:40:23;35.10;63.60
42085;DHT22;27746;52.228;20.890;2022-07-23T12:42:52;35.10;62.20
42085;DHT22;27746;52.228;20.890;2022-07-23T12:45:19;35.20;62.10
42085;DHT22;27746;52.228;20.890;2022-07-23T12:48:04;35.20;61.70
42085;DHT22;27746;52.228;20.890;2022-07-23T12:50:44;35.30;61.20
42085;DHT22;27746;52.228;20.890;2022-07-23T12:53:16;35.30;61.60
42085;DHT22;27746;52.228;20.890;2022-07-23T12:55:44;35.30;61.90
42085;DHT22;27746;52.228;20.890;2022-07-23T12:58:13;35.40;61.50
42085;DHT22;27746;52.228;20.890;2022-07-23T13:00:56;35.50;61.30
42085;DHT22;27746;52.228;20.890;2022-07-23T13:03:26;35.50;61.10
42085;DHT22;27746;52.228;20.890;2022-07-23T13:05:54;35.40;61.00
42085;DHT22;27746;52.228;20.890;2022-07-23T13:08:24;35.40;60.90
42085;DHT22;27746;52.228;20.890;2022-07-23T13:10:51;35.30;60.50
42085;DHT22;27746;52.228;20.890;2022-07-23T13:13:20;35.20;60.80
42085;DHT22;27746;52.228;20.890;2022-07-23T13:15:48;35.20;61.00
42085;DHT22;27746;52.228;20.890;2022-07-23T13:18:15;35.20;60.60
42085;DHT22;27746;52.228;20.890;2022-07-23T13:20:42;35.20;61.00
42085;DHT22;27746;52.228;20.890;2022-07-23T13:23:10;35.20;60.90
42085;DHT22;27746;52.228;20.890;2022-07-23T13:25:37;35.20;61.50
42085;DHT22;27746;52.228;20.890;2022-07-23T13:28:04;35.30;60.50
42085;DHT22;27746;52.228;20.890;2022-07-23T13:30:32;35.30;60.50
42085;DHT22;27746;52.228;20.890;2022-07-23T13:32:59;35.30;60.60
42085;DHT22;27746;52.228;20.890;2022-07-23T13:35:26;35.40;60.70
42085;DHT22;27746;52.228;20.890;2022-07-23T13:37:53;35.40;60.90
42085;DHT22;27746;52.228;20.890;2022-07-23T13:40:21;35.40;61.00
42085;DHT22;27746;52.228;20.890;2022-07-23T13:42:48;35.40;61.40
42085;DHT22;27746;52.228;20.890;2022-07-23T13:45:15;35.40;61.60
42085;DHT22;27746;52.228;20.890;2022-07-23T13:47:42;35.30;61.30
42085;DHT22;27746;52.228;20.890;2022-07-23T13:50:09;35.10;60.90
42085;DHT22;27746;52.228;20.890;2022-07-23T13:52:36;34.90;61.10
42085;DHT22;27746;52.228;20.890;2022-07-23T13:55:05;34.80;61.50
42085;DHT22;27746;52.228;20.890;2022-07-23T13:57:33;34.60;61.10
42085;DHT22;27746;52.228;20.890;2022-07-23T14:00:00;34.40;61.60
42085;DHT22;27746;52.228;20.890;2022-07-23T14:02:27;34.10;61.90
42085;DHT22;27746;52.228;20.890;2022-07-23T14:04:54;33.90;62.10
42085;DHT22;27746;52.228;20.890;2022-07-23T14:07:22;33.80;62.70
42085;DHT22;27746;52.228;20.890;2022-07-23T14:09:49;33.60;62.30
42085;DHT22;27746;52.228;20.890;2022-07-23T14:12:16;33.30;62.80
42085;DHT22;27746;52.228;20.890;2022-07-23T14:14:44;33.20;63.20
42085;DHT22;27746;52.228;20.890;2022-07-23T14:17:14;33.00;63.40
42085;DHT22;27746;52.228;20.890;2022-07-23T14:19:40;32.90;63.40
42085;DHT22;27746;52.228;20.890;2022-07-23T14:22:07;32.70;63.70
42085;DHT22;27746;52.228;20.890;2022-07-23T14:24:34;32.50;63.70
42085;DHT22;27746;52.228;20.890;2022-07-23T14:27:02;32.40;64.20
42085;DHT22;27746;52.228;20.890;2022-07-23T14:29:29;32.30;64.40
42085;DHT22;27746;52.228;20.890;2022-07-23T14:31:57;32.20;63.90
42085;DHT22;27746;52.228;20.890;2022-07-23T14:34:24;31.50;68.60
42085;DHT22;27746;52.228;20.890;2022-07-23T14:36:51;30.90;71.90
42085;DHT22;27746;52.228;20.890;2022-07-23T14:39:18;30.10;75.00
42085;DHT22;27746;52.228;20.890;2022-07-23T14:41:45;29.40;77.50
42085;DHT22;27746;52.228;20.890;2022-07-23T14:44:12;28.90;79.10
42085;DHT22;27746;52.228;20.890;2022-07-23T14:46:39;28.30;82.00
42085;DHT22;27746;52.228;20.890;2022-07-23T14:49:07;27.90;85.00
42085;DHT22;27746;52.228;20.890;2022-07-23T14:51:34;27.50;87.60
42085;DHT22;27746;52.228;20.890;2022-07-23T14:54:02;27.20;89.50
42085;DHT22;27746;52.228;20.890;2022-07-23T14:56:28;26.70;90.70
42085;DHT22;27746;52.228;20.890;2022-07-23T14:58:55;26.20;91.30
42085;DHT22;27746;52.228;20.890;2022-07-23T15:01:22;25.70;92.50
42085;DHT22;27746;52.228;20.890;2022-07-23T15:03:49;25.30;94.10
42085;DHT22;27746;52.228;20.890;2022-07-23T15:06:17;24.80;95.20
42085;DHT22;27746;52.228;20.890;2022-07-23T15:08:44;24.40;96.00
42085;DHT22;27746;52.228;20.890;2022-07-23T15:11:11;24.10;97.00
42085;DHT22;27746;52.228;20.890;2022-07-23T15:13:38;23.90;98.10
42085;DHT22;27746;52.228;20.890;2022-07-23T15:16:06;23.60;98.50
42085;DHT22;27746;52.228;20.890;2022-07-23T15:18:33;23.50;99.40
42085;DHT22;27746;52.228;20.890;2022-07-23T15:21:01;23.50;99.90
42085;DHT22;27746;52.228;20.890;2022-07-23T15:23:29;23.40;99.90